Time;durP1;ratioP1;P1;durP2;ratioP2;P2;SDS_P1;SDS_P2;PMS_P1;PMS_P2;Temp;Humidity;BMP_temperature;BMP_pressure;BME280_temperature;BME280_humidity;BME280_pressure;Samples;Min_cycle;Max_cycle;Signal;HPM_P1;HPM_P2
2022/11/22 00:02:09;;;;;;;11.50;6.22;;;;;;;7.26;82.23;100264.19;6328577;22;20015;-88
2022/11/22 00:04:35;;;;;;;13.13;6.75;;;;;;;6.96;82.74;100221.56;6360453;22;20071;-93
2022/11/22 00:07:02;;;;;;;9.25;6.38;;;;;;;6.90;83.63;100224.00;6362128;22;20026;-95
2022/11/22 00:09:28;;;;;;;10.75;7.05;;;;;;;7.28;83.19;100270.22;6311057;22;20006;-95
2022/11/22 00:11:54;;;;;;;9.73;6.60;;;;;;;6.96;82.55;100237.59;6349189;22;20469;-87
2022/11/22 00:14:23;;;;;;;10.40;6.40;;;;;;;6.95;82.31;100249.31;6312531;22;20462;-89
2022/11/22 00:16:49;;;;;;;10.90;6.38;;;;;;;6.83;82.94;100223.72;6341037;22;20025;-89
2022/11/22 00:19:15;;;;;;;12.18;6.53;;;;;;;6.88;83.98;100248.22;6340113;22;20063;-87
2022/11/22 00:21:40;;;;;;;9.68;6.22;;;;;;;6.88;83.30;100244.66;6307463;22;20030;-89
2022/11/22 00:24:06;;;;;;;10.13;6.68;;;;;;;6.99;83.42;100252.50;6281369;22;20027;-89
2022/11/22 00:26:31;;;;;;;11.35;6.53;;;;;;;6.87;83.67;100262.53;6306045;22;20006;-89
2022/11/22 00:28:57;;;;;;;11.75;7.10;;;;;;;7.05;84.00;100293.84;6306892;22;20007;-90
2022/11/22 00:31:24;;;;;;;12.90;6.70;;;;;;;6.92;84.05;100289.66;6333436;22;20336;-89
2022/11/22 00:33:51;;;;;;;12.82;6.82;;;;;;;6.78;83.65;100249.22;6282666;22;20015;-89
2022/11/22 00:36:17;;;;;;;11.32;7.00;;;;;;;6.71;84.19;100257.81;6334859;22;20084;-89
2022/11/22 00:38:44;;;;;;;12.13;7.45;;;;;;;6.84;83.90;100286.91;6307153;22;20018;-90
2022/11/22 00:41:10;;;;;;;13.77;6.82;;;;;;;6.98;83.29;100307.81;6336313;22;20048;-91
2022/11/22 00:43:37;;;;;;;11.30;7.50;;;;;;;6.91;83.87;100293.34;6292154;22;20404;-88
2022/11/22 00:46:06;;;;;;;11.10;6.97;;;;;;;6.60;83.58;100249.13;6356101;22;20022;-87
2022/11/22 00:48:33;;;;;;;10.43;6.68;;;;;;;6.86;83.71;100281.38;6329656;22;20075;-93
2022/11/22 00:51:01;;;;;;;10.70;6.82;;;;;;;7.01;83.44;100284.44;6309805;22;20007;-91
2022/11/22 00:53:27;;;;;;;10.88;6.90;;;;;;;6.77;83.01;100248.38;6344135;22;20017;-90
2022/11/22 00:56:21;;;;;;;15.00;7.20;;;;;;;6.98;83.00;100275.72;6308478;22;20040;-90
2022/11/22 00:58:54;;;;;;;11.40;6.65;;;;;;;7.05;82.37;100277.81;6335952;22;20482;-89
2022/11/22 01:01:25;;;;;;;12.48;7.32;;;;;;;6.96;81.91;100275.03;6334407;22;20413;-89
2022/11/22 01:03:55;;;;;;;14.65;7.18;;;;;;;6.95;81.42;100299.22;6335257;22;20007;-90
2022/11/22 01:06:25;;;;;;;11.52;6.90;;;;;;;6.83;80.44;100293.22;6281909;22;20014;-90
2022/11/22 01:08:52;;;;;;;11.75;7.03;;;;;;;6.76;80.26;100276.06;6307609;22;19999;-89
2022/11/22 01:11:19;;;;;;;13.20;7.60;;;;;;;6.92;79.51;100319.06;6335626;22;19998;-89
2022/11/22 01:13:49;;;;;;;12.25;7.35;;;;;;;6.71;80.83;100289.03;6315367;22;20027;-90
2022/11/22 01:16:15;;;;;;;12.02;7.93;;;;;;;6.65;80.91;100286.94;6276706;22;20007;-89
2022/11/22 01:18:44;;;;;;;12.38;7.53;;;;;;;6.64;80.47;100271.91;6301984;22;20003;-89
2022/11/22 01:21:11;;;;;;;11.20;7.53;;;;;;;6.67;80.68;100287.63;6304013;22;20076;-90
2022/11/22 01:23:41;;;;;;;13.07;7.22;;;;;;;6.84;80.60;100305.59;6275836;22;20418;-90
2022/11/22 01:26:10;;;;;;;14.65;8.13;;;;;;;6.65;81.09;100281.59;6280245;22;20445;-90
2022/11/22 01:28:37;;;;;;;11.88;7.28;;;;;;;6.57;79.95;100257.44;6256369;22;20066;-94
2022/11/22 01:31:08;;;;;;;12.02;7.43;;;;;;;6.88;80.20;100314.16;6270414;22;20014;-90
2022/11/22 01:33:35;;;;;;;12.75;7.40;;;;;;;6.66;79.68;100286.78;6276556;22;20010;-91
2022/11/22 01:36:01;;;;;;;12.00;7.78;;;;;;;6.54;79.94;100267.44;6276475;22;20011;-89
2022/11/22 01:42:05;;;;;;;12.15;7.45;;;;;;;6.62;80.09;100290.75;6311981;22;20005;-88
2022/11/22 01:44:42;;;;;;;12.65;7.82;;;;;;;6.68;79.34;100286.66;6308486;22;20103;-89
2022/11/22 01:47:19;;;;;;;11.88;7.35;;;;;;;6.85;80.15;100307.28;6283637;22;20011;-89
2022/11/22 01:50:03;;;;;;;12.45;7.45;;;;;;;6.91;79.95;100296.00;6279090;22;20007;-90
2022/11/22 01:52:52;;;;;;;12.73;7.63;;;;;;;6.85;80.14;100295.75;6314728;22;20456;-94
2022/11/22 01:55:42;;;;;;;12.32;7.55;;;;;;;6.95;79.62;100300.09;6307382;22;20339;-91
2022/11/22 01:58:11;;;;;;;12.18;7.38;;;;;;;6.80;79.75;100280.16;6286398;22;20007;-89
2022/11/22 02:00:37;;;;;;;13.70;7.80;;;;;;;7.03;79.87;100299.34;6282914;22;20089;-92
2022/11/22 02:03:10;;;;;;;12.25;7.55;;;;;;;6.95;78.80;100289.38;6253122;22;20067;-93
2022/11/22 02:05:44;;;;;;;15.27;9.02;;;;;;;6.76;78.21;100246.69;6306694;22;20007;-93
2022/11/22 02:08:19;;;;;;;13.90;8.68;;;;;;;6.89;78.41;100271.25;6253496;22;20491;-94
2022/11/22 02:10:48;;;;;;;12.20;7.78;;;;;;;6.92;78.58;100287.00;6227972;22;20114;-94
2022/11/22 02:13:14;;;;;;;11.38;7.50;;;;;;;6.49;79.25;100253.66;6275866;22;20129;-93
2022/11/22 02:15:43;;;;;;;12.35;7.53;;;;;;;6.53;79.12;100255.06;6305567;22;20007;-92
2022/11/22 02:18:11;;;;;;;13.95;7.75;;;;;;;6.49;79.11;100269.69;6253453;22;20030;-93
2022/11/22 02:20:40;;;;;;;11.82;7.70;;;;;;;6.71;79.11;100295.22;6305831;22;20377;-91
2022/11/22 02:24:13;;;;;;;11.43;7.10;;;;;;;7.00;78.92;100315.69;6303858;22;20308;-92
2022/11/22 02:26:40;;;;;;;13.10;7.28;;;;;;;6.83;78.26;100277.19;6210450;23;20120;-92
2022/11/22 02:29:21;;;;;;;11.13;7.28;;;;;;;6.97;78.78;100324.81;6211119;23;20009;-91
2022/11/22 02:32:35;;;;;;;11.60;7.70;;;;;;;6.84;79.48;100316.28;6207884;23;20025;-92
2022/11/22 02:35:23;;;;;;;12.52;7.70;;;;;;;6.68;78.75;100274.13;6211273;23;20469;-94
2022/11/22 02:41:11;;;;;;;11.50;7.60;;;;;;;6.80;78.25;100312.22;6227112;23;20007;-92
2022/11/22 02:47:03;;;;;;;14.00;8.07;;;;;;;6.60;78.69;100332.78;6266096;22;20088;-94
2022/11/22 02:49:36;;;;;;;13.18;7.78;;;;;;;6.68;78.08;100337.44;6281500;22;19999;-95
2022/11/22 02:52:08;;;;;;;11.73;7.75;;;;;;;6.79;77.79;100339.94;6330129;22;20000;-94
2022/11/22 02:54:36;;;;;;;10.98;7.15;;;;;;;6.73;77.19;100345.84;6309044;22;20012;-92
2022/11/22 02:57:03;;;;;;;11.70;7.20;;;;;;;6.86;77.42;100337.50;6303041;22;20007;-91
2022/11/22 02:59:28;;;;;;;11.93;7.80;;;;;;;6.76;77.48;100342.88;6277480;22;20011;-91
2022/11/22 03:01:58;;;;;;;12.77;8.00;;;;;;;6.82;77.87;100344.16;6277836;22;20420;-94
2022/11/22 03:04:30;;;;;;;12.13;7.05;;;;;;;6.80;77.40;100330.09;6310561;22;20087;-92
2022/11/22 03:07:00;;;;;;;11.73;7.53;;;;;;;6.75;77.47;100352.72;6336069;22;20036;-91
2022/11/22 03:09:32;;;;;;;11.50;6.78;;;;;;;6.92;77.12;100366.34;6337614;22;20002;-91
2022/11/22 03:12:01;;;;;;;11.48;7.32;;;;;;;6.80;76.34;100330.91;6361254;22;20010;-95
2022/11/22 03:14:33;;;;;;;11.40;7.28;;;;;;;6.72;76.12;100302.25;6310015;22;20019;-95
2022/11/22 03:17:02;;;;;;;13.30;7.32;;;;;;;6.57;76.03;100278.81;6311318;22;20011;-92
2022/11/22 03:19:32;;;;;;;11.52;7.28;;;;;;;7.01;75.47;100345.91;6307797;22;20019;-91
2022/11/22 03:22:02;;;;;;;12.27;7.35;;;;;;;6.84;75.28;100326.97;6331364;22;20041;-91
2022/11/22 03:24:29;;;;;;;12.10;7.30;;;;;;;6.82;75.01;100334.28;6309150;22;20422;-91
2022/11/22 03:27:09;;;;;;;11.70;7.38;;;;;;;7.14;74.82;100359.78;6335599;22;20014;-92
2022/11/22 03:29:36;;;;;;;12.25;7.43;;;;;;;6.90;74.76;100318.34;6282755;22;20055;-92
2022/11/22 03:32:04;;;;;;;12.15;7.63;;;;;;;6.87;75.32;100320.50;6306573;22;20085;-92
2022/11/22 03:34:29;;;;;;;11.10;7.32;;;;;;;7.26;74.40;100358.63;6307855;22;20093;-93
2022/11/22 03:37:00;;;;;;;12.65;7.75;;;;;;;7.10;74.73;100339.69;6309820;22;20026;-92
2022/11/22 03:39:29;;;;;;;11.82;7.20;;;;;;;7.10;74.29;100329.84;6349705;22;20017;-92
2022/11/22 03:41:55;;;;;;;11.88;7.70;;;;;;;7.13;74.87;100356.28;6308073;22;20019;-92
2022/11/22 03:44:27;;;;;;;13.63;8.05;;;;;;;7.16;75.28;100363.16;6338212;22;20090;-96
2022/11/22 03:47:07;;;;;;;12.50;7.93;;;;;;;6.73;76.47;100327.13;6329828;22;20066;-93
2022/11/22 03:49:39;;;;;;;12.13;7.82;;;;;;;6.95;76.07;100341.97;6320579;22;20014;-94
2022/11/22 03:52:14;;;;;;;13.88;8.00;;;;;;;6.83;76.57;100340.47;6337533;22;19998;-93
2022/11/22 03:54:43;;;;;;;12.73;7.60;;;;;;;6.73;76.27;100316.47;6311092;22;20284;-93
2022/11/22 03:57:09;;;;;;;12.50;7.68;;;;;;;7.01;75.82;100335.22;6282189;22;20070;-92
2022/11/22 03:59:44;;;;;;;13.27;8.27;;;;;;;6.99;76.35;100348.72;6308461;22;20003;-94
2022/11/22 04:02:23;;;;;;;14.68;8.38;;;;;;;6.74;75.61;100336.81;6326230;22;20010;-92
2022/11/22 04:04:48;;;;;;;12.68;8.02;;;;;;;6.89;75.66;100346.09;6308681;22;20303;-92
2022/11/22 04:07:15;;;;;;;13.40;8.10;;;;;;;7.07;75.77;100364.91;6307491;22;20074;-94
2022/11/22 04:09:43;;;;;;;11.45;7.75;;;;;;;7.00;76.22;100369.13;6308808;22;20022;-93
2022/11/22 04:12:09;;;;;;;12.95;8.10;;;;;;;7.06;76.99;100373.88;6336240;22;20083;-91
2022/11/22 04:17:47;;;;;;;14.00;8.82;;;;;;;6.85;77.17;100376.75;6338740;22;19964;-91
2022/11/22 04:26:32;;;;;;;14.25;8.10;;;;;;;6.76;76.98;100391.81;6352907;22;20027;-93
2022/11/22 04:28:59;;;;;;;16.33;9.23;;;;;;;6.67;77.71;100389.16;6361248;22;20015;-93
2022/11/22 04:34:10;;;;;;;16.20;9.10;;;;;;;6.66;77.90;100399.00;6313857;22;20048;-93
2022/11/22 04:36:37;;;;;;;14.13;8.77;;;;;;;6.65;77.80;100396.47;6329642;22;20094;-93
2022/11/22 04:39:05;;;;;;;14.50;8.68;;;;;;;6.82;77.78;100409.13;6335109;22;20006;-94
2022/11/22 04:41:31;;;;;;;15.38;9.07;;;;;;;6.70;78.11;100391.56;6362293;22;20062;-93
2022/11/22 04:46:49;;;;;;;15.85;8.90;;;;;;;6.63;77.88;100393.13;6351448;22;20014;-95
2022/11/22 04:49:16;;;;;;;15.68;9.30;;;;;;;6.63;78.03;100385.09;6331633;22;20003;-93
2022/11/22 04:54:28;;;;;;;16.75;9.07;;;;;;;6.59;79.26;100405.06;6325320;22;20010;-93
2022/11/22 04:56:54;;;;;;;15.98;9.43;;;;;;;6.48;79.45;100384.66;6264303;22;20015;-94
2022/11/22 04:59:21;;;;;;;16.33;9.98;;;;;;;6.37;79.72;100387.47;6320464;22;20003;-91
2022/11/22 05:01:47;;;;;;;15.95;9.90;;;;;;;6.73;79.38;100420.66;6361436;22;20005;-92
2022/11/22 05:04:14;;;;;;;17.52;10.45;;;;;;;6.56;79.89;100390.16;6309012;22;20006;-91
2022/11/22 05:06:43;;;;;;;16.63;9.98;;;;;;;6.73;79.48;100399.28;6328222;22;20011;-89
2022/11/22 05:10:11;;;;;;;17.63;9.68;;;;;;;6.51;79.46;100374.56;6340612;22;20030;-95
2022/11/22 06:00:32;;;;;;;18.10;10.07;;;;;;;6.89;77.21;100452.16;6356608;22;19910;-93
2022/11/22 06:03:55;;;;;;;18.25;10.25;;;;;;;6.88;77.04;100472.69;6361708;22;20006;-91
2022/11/22 06:06:29;;;;;;;16.52;10.23;;;;;;;6.77;77.07;100454.13;6331533;22;20082;-95
2022/11/22 06:24:09;;;;;;;16.42;10.60;;;;;;;7.55;74.27;100465.50;6322066;22;20071;-96
2022/11/22 06:26:35;;;;;;;19.73;11.32;;;;;;;8.11;74.21;100519.94;6311056;22;20023;-92
2022/11/22 06:29:07;;;;;;;21.33;12.63;;;;;;;7.88;73.35;100491.88;6239756;22;20014;-93
2022/11/22 06:31:52;;;;;;;18.75;10.57;;;;;;;8.13;73.56;100507.25;6314223;22;20014;-94
2022/11/22 06:34:19;;;;;;;16.23;10.65;;;;;;;7.89;72.29;100470.31;6305910;22;20080;-94
2022/11/22 06:36:46;;;;;;;16.25;10.20;;;;;;;8.35;71.89;100510.50;6306674;22;20003;-91
2022/11/22 06:39:39;;;;;;;14.88;9.00;;;;;;;8.44;70.00;100541.78;6265381;22;20004;-92
2022/11/22 06:42:41;;;;;;;13.60;8.85;;;;;;;7.98;70.28;100490.84;6301265;22;20389;-94
2022/11/22 06:48:49;;;;;;;15.57;9.48;;;;;;;8.18;71.46;100498.75;6308992;22;20030;-92
2022/11/22 06:52:08;;;;;;;15.05;9.32;;;;;;;9.04;68.74;100528.66;6310716;22;20054;-92
2022/11/22 06:54:39;;;;;;;15.63;9.40;;;;;;;9.94;65.08;100499.72;6327184;22;20022;-92
2022/11/22 06:57:14;;;;;;;13.95;9.05;;;;;;;10.24;63.57;100529.75;6303165;22;20037;-92
2022/11/22 06:59:44;;;;;;;16.20;9.35;;;;;;;11.63;60.70;100512.94;6280085;22;20011;-93
2022/11/22 07:02:17;;;;;;;13.65;8.93;;;;;;;12.97;55.73;100521.94;6252378;22;20022;-94
2022/11/22 07:04:48;;;;;;;12.98;9.18;;;;;;;14.55;50.81;100511.88;6268114;22;20022;-96
2022/11/22 07:07:42;;;;;;;13.38;8.63;;;;;;;13.46;52.25;100524.28;6244139;22;20015;-92
2022/11/22 07:10:28;;;;;;;15.07;9.70;;;;;;;12.52;55.01;100507.41;6265530;22;20088;-94
2022/11/22 07:13:40;;;;;;;17.23;9.70;;;;;;;14.65;51.30;100513.44;6287811;22;20008;-94
2022/11/22 07:16:23;;;;;;;15.85;9.10;;;;;;;15.58;47.31;100538.69;6287013;22;20498;-96
2022/11/22 07:19:17;;;;;;;15.25;9.30;;;;;;;16.04;45.67;100528.19;6245612;22;20010;-95
2022/11/22 07:21:54;;;;;;;12.95;9.57;;;;;;;17.07;43.27;100530.91;6297180;22;20075;-96
2022/11/22 07:24:51;;;;;;;12.02;9.35;;;;;;;18.55;41.08;100559.59;6231871;22;20019;-95
2022/11/22 07:27:19;;;;;;;16.70;9.52;;;;;;;19.33;38.31;100512.19;6194597;23;20099;-93
2022/11/22 07:29:46;;;;;;;15.85;10.98;;;;;;;19.67;37.35;100512.75;6193994;23;20016;-94
2022/11/22 07:32:19;;;;;;;12.30;9.20;;;;;;;19.02;36.64;100530.25;6217269;23;20051;-94
2022/11/22 07:35:10;;;;;;;14.15;8.82;;;;;;;18.92;37.27;100524.44;6217134;23;20096;-96
2022/11/22 07:40:54;;;;;;;10.60;7.97;;;;;;;21.38;32.77;100518.16;6322375;22;20050;-96
2022/11/22 07:43:29;;;;;;;10.63;7.88;;;;;;;20.66;33.23;100546.31;6261935;22;20019;-96
2022/11/22 07:46:28;;;;;;;12.73;8.13;;;;;;;20.51;34.05;100541.22;6258228;22;20079;-95
2022/11/22 07:49:04;;;;;;;13.23;8.63;;;;;;;20.90;33.44;100538.22;6273752;22;20003;-96
2022/11/22 07:51:58;;;;;;;11.30;8.20;;;;;;;21.52;32.09;100560.63;6282554;22;20012;-95
2022/11/22 07:54:35;;;;;;;12.40;8.50;;;;;;;21.54;31.85;100536.63;6336212;22;20230;-94
2022/11/22 07:57:09;;;;;;;12.18;8.55;;;;;;;21.12;33.29;100553.03;6291435;22;20042;-94
2022/11/22 07:59:35;;;;;;;11.48;8.00;;;;;;;21.92;31.19;100544.34;6292382;22;20011;-94
2022/11/22 08:02:02;;;;;;;11.52;8.35;;;;;;;21.36;31.58;100534.78;6312826;22;20014;-94
2022/11/22 08:04:29;;;;;;;13.98;8.38;;;;;;;19.70;34.36;100569.59;6310582;22;20076;-95
2022/11/22 08:06:58;;;;;;;11.70;8.52;;;;;;;18.37;36.38;100521.34;6318757;22;20054;-94
2022/11/22 08:09:37;;;;;;;10.50;8.60;;;;;;;17.78;37.85;100556.59;6320946;22;20010;-93
2022/11/22 08:12:08;;;;;;;14.95;8.63;;;;;;;16.18;41.35;100523.69;6315340;22;20006;-95
2022/11/22 08:15:05;;;;;;;14.52;8.38;;;;;;;16.25;40.74;100540.00;6344941;22;20087;-92
2022/11/22 08:17:37;;;;;;;10.95;8.57;;;;;;;16.10;42.56;100556.38;6321793;22;20017;-94
2022/11/22 08:20:12;;;;;;;12.25;9.18;;;;;;;15.35;44.20;100545.16;6321820;22;20013;-94
2022/11/22 08:22:50;;;;;;;12.38;8.82;;;;;;;15.32;44.32;100537.44;6358924;22;20010;-94
2022/11/22 08:25:24;;;;;;;12.18;8.80;;;;;;;17.66;39.43;100558.31;6303063;22;20154;-91
2022/11/22 08:27:52;;;;;;;12.70;8.38;;;;;;;19.43;36.59;100601.66;6337038;22;20072;-92
2022/11/22 08:30:19;;;;;;;10.55;8.50;;;;;;;21.21;34.14;100587.19;6329593;22;20060;-91
2022/11/22 08:33:12;;;;;;;12.57;8.55;;;;;;;23.02;30.85;100574.63;6355408;22;20005;-96
2022/11/22 08:36:14;;;;;;;12.02;8.43;;;;;;;24.04;28.04;100550.78;6314288;22;20010;-92
2022/11/22 08:39:42;;;;;;;10.50;7.80;;;;;;;23.99;27.76;100590.00;6328014;22;20029;-94
2022/11/22 08:43:02;;;;;;;15.27;8.50;;;;;;;26.52;25.59;100575.72;6306208;22;20065;-95
2022/11/22 08:46:19;;;;;;;13.63;7.75;;;;;;;27.18;24.10;100577.88;6355413;22;20040;-95
2022/11/22 08:48:56;;;;;;;10.15;7.50;;;;;;;26.29;23.84;100547.53;6284038;22;20011;-95
2022/11/22 09:07:26;;;;;;;12.15;7.90;;;;;;;28.78;20.86;100533.13;6380688;22;20041;-96
2022/11/22 09:09:52;;;;;;;11.15;7.85;;;;;;;27.72;22.03;100568.25;6328807;22;20106;-94
2022/11/22 09:13:02;;;;;;;11.20;7.93;;;;;;;27.40;22.02;100558.34;6316861;22;20529;-95
2022/11/22 09:15:37;;;;;;;11.70;7.88;;;;;;;26.91;22.76;100539.50;6320771;22;20006;-95
2022/11/22 09:18:31;;;;;;;14.43;8.48;;;;;;;26.62;23.19;100539.97;6319881;22;20011;-96
2022/11/22 09:21:51;;;;;;;21.85;9.30;;;;;;;28.52;21.80;100534.41;6236746;22;20061;-93
2022/11/22 09:24:17;;;;;;;14.18;8.90;;;;;;;28.93;21.14;100534.97;6265229;22;20045;-94
2022/11/22 09:26:46;;;;;;;11.88;8.30;;;;;;;29.97;19.88;100561.59;6270190;22;20121;-91
2022/11/22 09:29:20;;;;;;;12.02;8.25;;;;;;;30.03;19.83;100549.31;6248830;22;20031;-95
2022/11/22 09:31:50;;;;;;;11.27;8.13;;;;;;;29.53;19.78;100553.38;6328605;22;20087;-89
2022/11/22 09:34:18;;;;;;;9.75;7.47;;;;;;;30.43;19.26;100561.06;6375967;22;20075;-92
2022/11/22 09:36:44;;;;;;;10.38;7.53;;;;;;;29.50;19.98;100554.81;6346425;22;20014;-94
2022/11/22 09:39:10;;;;;;;11.07;7.63;;;;;;;31.26;18.91;100535.78;6365059;22;20002;-92
2022/11/22 09:42:19;;;;;;;10.68;7.03;;;;;;;30.91;19.10;100549.09;6331072;22;20450;-90
2022/11/22 09:48:11;;;;;;;10.23;6.45;;;;;;;31.14;18.17;100558.47;6356033;22;20028;-95
2022/11/22 09:51:14;;;;;;;6.68;5.93;;;;;;;30.34;18.33;100521.25;6356745;22;20014;-94
2022/11/22 09:53:54;;;;;;;8.88;6.38;;;;;;;28.78;19.35;100532.31;6352595;22;20022;-94
2022/11/22 09:56:24;;;;;;;;;;;;;;;28.81;20.10;100532.56;6355439;22;21862;-92
2022/11/22 09:59:10;;;;;;;10.45;6.38;;;;;;;28.75;19.89;100477.53;6319372;22;19906;-91
2022/11/22 10:02:07;;;;;;;7.57;5.63;;;;;;;28.53;20.14;100491.78;6315785;22;20532;-90
2022/11/22 10:04:54;;;;;;;14.25;6.40;;;;;;;26.77;21.92;100488.72;6275879;22;20017;-89
2022/11/22 10:07:41;;;;;;;8.02;6.25;;;;;;;28.44;20.06;100499.81;6366574;22;20013;-91
2022/11/22 10:10:24;;;;;;;9.10;5.93;;;;;;;29.04;19.67;100508.06;6318260;22;20048;-91
2022/11/22 10:13:15;;;;;;;15.27;6.55;;;;;;;30.14;18.68;100502.91;6351669;22;19998;-93
2022/11/22 10:15:56;;;;;;;9.38;6.25;;;;;;;30.74;18.49;100509.91;6346235;22;20026;-91
2022/11/22 10:18:37;;;;;;;8.63;5.78;;;;;;;31.06;17.38;100532.19;6331383;22;20033;-93
2022/11/22 10:21:16;;;;;;;10.27;6.03;;;;;;;32.15;16.63;100532.81;6351366;22;20037;-94
2022/11/22 10:23:56;;;;;;;11.35;6.95;;;;;;;32.26;16.27;100510.34;6352051;22;20009;-95
2022/11/22 10:26:27;;;;;;;10.43;6.30;;;;;;;33.13;15.77;100489.78;6368496;22;20025;-91
2022/11/22 10:29:11;;;;;;;12.88;5.90;;;;;;;32.96;15.44;100528.56;6346960;22;20001;-94
2022/11/22 10:32:06;;;;;;;;;;;;;;;32.47;16.10;100522.69;6351190;22;20120;-96
2022/11/22 10:35:13;;;;;;;5.40;4.63;;;;;;;31.50;16.11;100494.00;6363423;22;19914;-96
2022/11/22 10:38:18;;;;;;;7.00;5.30;;;;;;;29.67;18.07;100527.50;6333398;22;20034;-94
2022/11/22 10:41:51;;;;;;;10.35;5.80;;;;;;;30.33;17.81;100527.94;6346717;22;20026;-95
2022/11/22 10:44:44;;;;;;;11.05;6.43;;;;;;;28.31;19.43;100494.94;6350824;22;20010;-93
2022/11/22 10:47:16;;;;;;;9.10;5.53;;;;;;;29.31;18.62;100515.06;6336872;22;20034;-92
2022/11/22 10:50:19;;;;;;;11.00;5.40;;;;;;;30.32;17.80;100526.28;6310665;22;20007;-93
2022/11/22 10:52:55;;;;;;;7.32;5.10;;;;;;;29.54;17.88;100517.06;6339837;22;20003;-91
2022/11/22 10:55:40;;;;;;;11.38;5.97;;;;;;;29.02;18.59;100502.00;6310561;22;20031;-91
2022/11/22 10:58:38;;;;;;;6.95;5.32;;;;;;;29.46;18.14;100531.56;6340776;22;20037;-91
2022/11/22 11:01:13;;;;;;;11.18;5.93;;;;;;;29.51;17.90;100528.75;6355946;22;20001;-90
2022/11/22 11:04:17;;;;;;;9.73;6.50;;;;;;;29.53;18.14;100529.28;6363264;22;20018;-88
2022/11/22 11:06:53;;;;;;;17.65;7.72;;;;;;;29.01;18.92;100508.66;6356346;22;20014;-93
2022/11/22 11:10:03;;;;;;;9.23;7.53;;;;;;;29.56;18.78;100527.88;6359711;22;20086;-93
2022/11/22 11:12:53;;;;;;;14.60;7.55;;;;;;;30.01;18.38;100532.13;6341014;22;20144;-92
2022/11/22 11:15:25;;;;;;;13.80;7.38;;;;;;;30.56;17.98;100519.88;6337546;22;20481;-93
2022/11/22 11:17:58;;;;;;;10.80;7.40;;;;;;;30.90;17.39;100501.06;6311793;22;20076;-91
2022/11/22 11:20:37;;;;;;;16.85;7.80;;;;;;;30.97;17.20;100484.03;6312361;22;20459;-93
2022/11/22 11:23:08;;;;;;;22.63;8.93;;;;;;;30.49;17.39;100485.00;6337626;22;20007;-92
2022/11/22 11:25:42;;;;;;;10.88;7.70;;;;;;;29.57;18.62;100472.19;6312437;22;20006;-92
2022/11/22 11:28:29;;;;;;;17.20;8.20;;;;;;;29.84;18.15;100490.22;6335471;22;20018;-96
2022/11/22 11:31:53;;;;;;;12.70;8.40;;;;;;;30.42;17.52;100511.47;6342008;22;20025;-95
2022/11/22 11:34:34;;;;;;;14.67;8.67;;;;;;;30.01;18.50;100486.97;6227574;23;20080;-94
2022/11/22 11:41:29;;;;;;;11.23;8.40;;;;;;;28.02;19.64;100514.09;6249749;23;20088;-94
2022/11/22 11:48:19;;;;;;;14.77;8.23;;;;;;;24.84;22.91;100523.78;6363906;22;20096;-95
2022/11/22 11:51:45;;;;;;;13.00;8.10;;;;;;;23.09;24.95;100542.41;6354696;22;20028;-94
2022/11/22 11:54:22;;;;;;;12.02;7.72;;;;;;;23.07;24.93;100505.34;6325504;22;20015;-96
2022/11/22 11:57:42;;;;;;;11.05;7.55;;;;;;;21.92;26.44;100533.41;6321132;22;20011;-95
2022/11/22 12:07:37;;;;;;;11.77;6.80;;;;;;;20.15;29.62;100542.91;6248409;23;20016;-96
2022/11/22 12:17:50;;;;;;;10.23;6.25;;;;;;;19.16;30.18;100533.72;6251221;23;20097;-95
2022/11/22 12:30:27;;;;;;;17.00;5.20;;;;;;;18.20;31.13;100535.44;6250816;23;20050;-91
2022/11/22 13:16:10;;;;;;;6.40;4.78;;;;;;;14.34;45.15;100560.50;6266071;22;20034;-89
2022/11/22 13:19:07;;;;;;;6.78;5.10;;;;;;;14.29;45.35;100566.47;6324843;22;20003;-91
2022/11/22 13:22:01;;;;;;;7.85;5.13;;;;;;;14.11;45.78;100556.00;6328570;22;20029;-90
2022/11/22 13:25:23;;;;;;;9.68;5.18;;;;;;;13.82;46.39;100547.91;6341266;22;20070;-90
2022/11/22 13:27:49;;;;;;;6.90;4.88;;;;;;;13.89;45.81;100565.91;6161918;23;20016;-89
2022/11/22 13:30:18;;;;;;;8.65;4.55;;;;;;;13.63;44.94;100549.28;6186426;23;20144;-90
2022/11/22 13:33:06;;;;;;;9.43;4.55;;;;;;;13.29;46.59;100510.91;6255253;22;20022;-93
2022/11/22 13:35:46;;;;;;;12.27;8.68;;;;;;;13.64;46.89;100564.47;6303691;22;20081;-90
2022/11/22 13:38:17;;;;;;;8.18;5.25;;;;;;;13.26;48.94;100567.97;6283566;22;20011;-86
2022/11/22 13:41:03;;;;;;;;;;;;;;;;;;;;;
2022/11/22 13:43:58;;;;;;;8.45;5.15;;;;;;;12.84;49.72;100517.16;6320725;22;20387;-87
2022/11/22 13:47:08;;;;;;;7.55;4.75;;;;;;;12.87;49.42;100528.41;6298723;22;20034;-87
2022/11/22 13:49:44;;;;;;;7.97;4.57;;;;;;;12.81;49.62;100526.44;6291013;22;20096;-87
2022/11/22 13:52:33;;;;;;;7.75;5.20;;;;;;;12.95;50.74;100573.41;6318015;22;19999;-86
2022/11/22 13:55:23;;;;;;;6.70;4.15;;;;;;;12.50;52.00;100548.03;6345218;22;20014;-88
2022/11/22 13:57:50;;;;;;;8.70;4.50;;;;;;;12.14;52.14;100536.91;6337189;22;20003;-87
2022/11/22 14:00:20;;;;;;;5.80;3.90;;;;;;;12.33;51.47;100584.19;6307786;22;20546;-87
2022/11/22 14:02:47;;;;;;;7.32;3.83;;;;;;;12.12;52.58;100561.31;6307570;22;20063;-89
2022/11/22 14:05:25;;;;;;;5.93;4.03;;;;;;;12.22;52.32;100578.16;6282951;22;20089;-88
2022/11/22 14:07:55;;;;;;;8.20;4.13;;;;;;;11.61;53.55;100528.41;6334760;22;20352;-86
2022/11/22 14:10:39;;;;;;;5.88;3.65;;;;;;;11.73;54.44;100590.84;6337653;22;20495;-87
2022/11/22 14:13:40;;;;;;;5.75;4.00;;;;;;;11.61;54.62;100580.44;6341640;22;20034;-85
2022/11/22 14:16:53;;;;;;;7.57;4.10;;;;;;;11.55;55.18;100597.25;6342197;22;20091;-87
2022/11/22 14:19:30;;;;;;;8.73;4.47;;;;;;;11.52;54.89;100589.53;6185131;23;20044;-86
2022/11/22 14:22:19;;;;;;;8.25;4.47;;;;;;;11.52;54.68;100594.06;6156776;23;20025;-88
2022/11/22 14:25:00;;;;;;;7.82;4.60;;;;;;;11.32;54.88;100580.09;6157789;23;20499;-88
2022/11/22 14:28:15;;;;;;;8.43;4.93;;;;;;;11.16;55.32;100552.16;6286012;22;20026;-86
2022/11/22 14:30:52;;;;;;;8.82;4.10;;;;;;;11.28;55.13;100573.38;6302827;22;20446;-88
2022/11/22 14:33:23;;;;;;;6.47;4.32;;;;;;;11.12;55.42;100558.91;6296942;22;20011;-88
2022/11/22 14:36:10;;;;;;;7.72;4.85;;;;;;;11.06;56.31;100558.72;6315757;22;20041;-88
2022/11/22 14:38:41;;;;;;;8.23;4.40;;;;;;;10.91;56.19;100554.00;6339272;22;20038;-86
2022/11/22 14:41:29;;;;;;;6.25;4.20;;;;;;;10.93;56.46;100580.72;6315684;22;20086;-87
2022/11/22 14:44:16;;;;;;;8.85;4.90;;;;;;;11.03;56.36;100570.66;6337636;22;20010;-89
2022/11/22 14:47:01;;;;;;;6.75;4.85;;;;;;;11.05;57.04;100574.03;6309514;22;20007;-88
2022/11/22 14:49:44;;;;;;;7.85;4.70;;;;;;;11.03;56.77;100584.13;6310785;22;20015;-88
2022/11/22 14:52:19;;;;;;;7.15;4.03;;;;;;;10.86;56.66;100553.63;6337017;22;20021;-89
2022/11/22 14:54:48;;;;;;;6.95;4.07;;;;;;;10.76;56.83;100526.91;6311340;22;20018;-88
2022/11/22 14:57:26;;;;;;;8.90;4.43;;;;;;;10.75;57.45;100536.00;6311524;22;20049;-86
2022/11/22 15:00:19;;;;;;;7.03;4.60;;;;;;;10.87;58.30;100570.63;6308022;22;20094;-87
2022/11/22 15:03:36;;;;;;;6.28;4.50;;;;;;;10.98;58.72;100590.00;6307328;22;20459;-89
2022/11/22 15:06:31;;;;;;;6.22;4.07;;;;;;;10.90;59.61;100579.19;6351629;22;20018;-86
2022/11/22 15:09:29;;;;;;;7.47;4.90;;;;;;;10.82;60.85;100589.97;6301271;22;19994;-87
2022/11/22 15:12:00;;;;;;;7.35;4.93;;;;;;;10.69;62.34;100590.41;6360985;22;20045;-87
2022/11/22 15:14:44;;;;;;;7.97;5.25;;;;;;;10.78;62.62;100584.06;6348670;22;20083;-84
2022/11/22 15:17:15;;;;;;;7.57;4.40;;;;;;;10.57;62.73;100570.22;6333964;22;20073;-86
2022/11/22 15:19:42;;;;;;;10.95;5.35;;;;;;;10.55;62.82;100570.38;6282585;22;20089;-84
2022/11/22 15:22:24;;;;;;;10.25;5.00;;;;;;;10.44;63.01;100553.69;6307232;22;20141;-86
2022/11/22 15:24:52;;;;;;;7.22;4.47;;;;;;;10.60;62.99;100567.19;6310207;22;20527;-87
2022/11/22 15:27:28;;;;;;;9.10;4.80;;;;;;;10.71;63.04;100580.34;6313979;22;20002;-87
2022/11/22 15:30:19;;;;;;;9.38;5.28;;;;;;;10.71;63.14;100566.91;6349268;22;20041;-86
2022/11/22 15:32:51;;;;;;;8.82;5.10;;;;;;;10.71;62.98;100566.06;6346408;22;20062;-86